Time;durP1;ratioP1;P1;durP2;ratioP2;P2;SDS_P1;SDS_P2;PMS_P1;PMS_P2;Temp;Humidity;BMP_temperature;BMP_pressure;BME280_temperature;BME280_humidity;BME280_pressure;Samples;Min_cycle;Max_cycle;Signal;HPM_P1;HPM_P2
2023/01/12 00:02:03;;;;;;;;;10.33;2.33;;;;;10.79;69.79;101486.38;5057953;28;45508;-69
2023/01/12 00:04:29;;;;;;;;;6.00;2.00;;;;;10.81;69.64;101485.53;5076423;28;45387;-69
2023/01/12 00:06:58;;;;;;;;;4.67;1.00;;;;;10.85;69.86;101489.09;5061225;28;45452;-69
2023/01/12 00:09:28;;;;;;;;;5.00;1.00;;;;;10.89;70.03;101492.63;5058434;28;47355;-70
2023/01/12 00:11:54;;;;;;;;;5.00;1.50;;;;;10.95;70.59;101487.47;5076126;28;45422;-69
2023/01/12 00:14:19;;;;;;;;;3.00;1.00;;;;;10.76;70.61;101462.78;5080478;27;45465;-74
2023/01/12 00:16:45;;;;;;;;;2.25;2.25;;;;;10.95;70.23;101492.72;5061328;28;45370;-71
2023/01/12 00:19:11;;;;;;;;;4.00;1.00;;;;;10.98;70.41;101463.91;5057040;28;46951;-71
2023/01/12 00:24:26;;;;;;;;;6.75;1.25;;;;;10.78;71.60;101445.34;5062764;28;45276;-73
2023/01/12 00:26:51;;;;;;;;;4.25;2.25;;;;;10.76;71.65;101452.28;5079825;27;45531;-72
2023/01/12 00:29:17;;;;;;;;;1.00;1.00;;;;;10.66;71.84;101447.81;5066525;27;46728;-71
2023/01/12 00:31:44;;;;;;;;;0.00;0.00;;;;;10.79;71.80;101465.44;5074466;27;45423;-69
2023/01/12 00:34:10;;;;;;;;;2.33;1.00;;;;;10.77;71.82;101452.31;5059991;28;45561;-69
2023/01/12 00:36:35;;;;;;;;;1.00;1.00;;;;;10.69;72.17;101446.09;5080750;27;45444;-69
2023/01/12 00:39:02;;;;;;;;;2.50;2.25;;;;;10.74;71.98;101447.03;5076579;28;45573;-67
2023/01/12 00:46:55;;;;;;;;;2.33;1.67;;;;;10.75;71.60;101425.22;5076269;27;45441;-70
2023/01/12 00:49:21;;;;;;;;;1.25;1.25;;;;;10.80;71.65;101436.63;5078533;27;45342;-68
2023/01/12 00:51:53;;;;;;;;;3.00;2.00;;;;;10.77;71.44;101431.38;5076246;27;45520;-73
2023/01/12 00:54:21;;;;;;;;;2.00;1.00;;;;;10.74;71.32;101425.19;5062905;28;46032;-73
2023/01/12 00:56:53;;;;;;;;;2.00;0.67;;;;;10.75;71.14;101408.63;5076261;28;45703;-69
2023/01/12 00:59:28;;;;;;;;;2.00;2.00;;;;;10.18;70.77;101298.78;5077559;28;45442;-74
2023/01/12 01:01:59;;;;;;;;;3.00;2.00;;;;;10.92;70.63;101403.56;5060523;28;45562;-74
2023/01/12 01:04:26;;;;;;;;;4.00;1.00;;;;;10.86;70.93;101401.75;5062546;28;45420;-75
2023/01/12 01:06:52;;;;;;;;;2.00;0.67;;;;;10.77;71.07;101373.72;5080399;28;45300;-75
2023/01/12 01:09:18;;;;;;;;;2.33;2.00;;;;;10.56;71.06;101356.00;5082219;28;45524;-76
2023/01/12 01:11:43;;;;;;;;;5.33;2.67;;;;;10.82;71.24;101398.22;5082987;28;45445;-73
2023/01/12 01:14:09;;;;;;;;;5.33;1.00;;;;;10.85;71.28;101415.72;5078764;27;45531;-73
2023/01/12 01:16:35;;;;;;;;;2.33;1.00;;;;;10.61;70.83;101375.28;5076179;28;45662;-74
2023/01/12 01:19:03;;;;;;;;;4.25;1.50;;;;;10.91;70.86;101412.28;5071563;28;45845;-72
2023/01/12 01:21:29;;;;;;;;;10.00;2.00;;;;;10.90;70.63;101403.53;5058184;28;45721;-73
2023/01/12 01:23:54;;;;;;;;;3.00;1.00;;;;;10.69;70.64;101390.19;5073515;27;45382;-73
2023/01/12 01:26:22;;;;;;;;;2.25;2.00;;;;;10.71;70.69;101372.75;5066750;28;45316;-75
2023/01/12 01:28:49;;;;;;;;;1.33;1.33;;;;;10.92;70.43;101398.34;5071308;28;46487;-74
2023/01/12 01:31:23;;;;;;;;;3.75;1.00;;;;;10.55;70.78;101333.28;5060931;28;45527;-75
2023/01/12 01:33:51;;;;;;;;;2.33;0.00;;;;;10.75;70.79;101385.91;5070431;28;45540;-73
2023/01/12 01:36:18;;;;;;;;;2.33;2.00;;;;;10.69;70.67;101371.84;5076369;28;45544;-78
2023/01/12 01:38:45;;;;;;;;;3.00;1.00;;;;;10.44;71.02;101339.25;5076902;28;46645;-75
2023/01/12 01:41:22;;;;;;;;;4.00;0.00;;;;;10.73;70.70;101399.88;5076553;28;45946;-74
2023/01/12 01:44:25;;;;;;;;;6.50;1.00;;;;;10.68;71.10;101385.81;5072558;27;45513;-75
2023/01/12 01:46:55;;;;;;;;;3.33;0.00;;;;;10.75;70.97;101391.16;5076264;28;45660;-74
2023/01/12 01:49:28;;;;;;;;;1.00;1.00;;;;;10.65;70.70;101373.53;5078395;28;46131;-72
2023/01/12 01:52:09;;;;;;;;;2.33;1.33;;;;;10.46;70.89;101341.00;5057861;28;45729;-76
2023/01/12 01:54:40;;;;;;;;;2.00;0.00;;;;;10.82;71.10;101376.38;5070969;27;45298;-76
2023/01/12 01:57:08;;;;;;;;;8.75;2.25;;;;;10.85;71.17;101381.66;5071055;28;45351;-77
2023/01/12 01:59:38;;;;;;;;;0.67;0.67;;;;;10.81;71.38;101382.47;5065830;28;46184;-77
2023/01/12 02:02:05;;;;;;;;;5.33;2.00;;;;;10.67;71.52;101360.47;5074039;27;45506;-73
2023/01/12 02:04:31;;;;;;;;;0.67;0.67;;;;;10.71;71.97;101397.22;5066543;28;45904;-74
2023/01/12 02:06:58;;;;;;;;;4.67;2.33;;;;;10.44;71.94;101345.38;5074286;27;45556;-74
2023/01/12 02:09:26;;;;;;;;;5.67;1.00;;;;;10.58;71.86;101361.25;5074454;27;46202;-76
2023/01/12 02:17:54;;;;;;;;;3.67;2.00;;;;;10.66;71.68;101369.22;5073957;27;45664;-77
2023/01/12 02:20:39;;;;;;;;;4.33;1.00;;;;;10.83;71.77;101388.63;5074333;27;46159;-72
2023/01/12 02:23:38;;;;;;;;;1.00;1.00;;;;;10.43;71.83;101304.31;5074184;28;45495;-74
2023/01/12 02:26:09;;;;;;;;;4.00;1.00;;;;;10.90;71.70;101374.72;5072395;28;45555;-75
2023/01/12 02:29:17;;;;;;;;;2.50;1.00;;;;;10.71;71.72;101336.09;5063160;27;45411;-74
2023/01/12 02:32:02;;;;;;;;;3.25;2.50;;;;;10.95;71.37;101382.63;5065412;27;45484;-73
2023/01/12 02:34:53;;;;;;;;;3.00;1.00;;;;;10.93;71.33;101364.25;5076307;28;45474;-77
2023/01/12 02:37:35;;;;;;;;;2.33;1.00;;;;;10.95;71.51;101374.78;5074363;27;45531;-77
2023/01/12 02:40:07;;;;;;;;;2.67;2.33;;;;;10.93;71.17;101363.38;5074711;27;45822;-78
2023/01/12 02:43:03;;;;;;;;;3.33;1.00;;;;;10.90;71.58;101364.22;5074543;28;45862;-74
2023/01/12 02:45:36;;;;;;;;;1.33;1.00;;;;;10.82;71.34;101331.84;5055569;28;45357;-74
2023/01/12 02:48:20;;;;;;;;;2.00;1.00;;;;;10.97;71.00;101331.09;5073594;27;45759;-79
2023/01/12 02:51:00;;;;;;;;;3.00;1.00;;;;;10.76;70.85;101284.59;5074694;28;45648;-79
2023/01/12 02:53:44;;;;;;;;;2.00;1.00;;;;;11.01;71.48;101331.16;5055681;28;47466;-79
2023/01/12 02:56:15;;;;;;;;;4.00;0.33;;;;;10.79;71.35;101306.47;5076873;28;45502;-78
2023/01/12 02:58:47;;;;;;;;;3.00;1.00;;;;;10.99;71.02;101324.16;5055717;28;45465;-75
2023/01/12 03:01:15;;;;;;;;;1.00;1.00;;;;;10.83;70.90;101304.75;5073778;28;46006;-72
2023/01/12 03:03:41;;;;;;;;;5.33;2.00;;;;;10.59;70.69;101235.53;5075945;27;45466;-73
2023/01/12 03:06:08;;;;;;;;;5.50;1.50;;;;;10.77;71.10;101278.47;5073417;28;45401;-72
2023/01/12 03:08:38;;;;;;;;;3.67;1.33;;;;;10.70;71.37;101263.56;5076598;28;45424;-73
2023/01/12 03:11:20;;;;;;;;;2.00;1.00;;;;;10.98;71.02;101296.16;5078209;27;45434;-73
2023/01/12 03:13:54;;;;;;;;;2.00;1.33;;;;;11.01;71.17;101296.22;5045197;28;46957;-75
2023/01/12 03:16:24;;;;;;;;;3.33;1.00;;;;;10.93;71.25;101271.66;5076435;27;45437;-72
2023/01/12 03:19:20;;;;;;;;;3.33;0.00;;;;;11.05;70.86;101297.97;5073425;28;45571;-71
2023/01/12 03:22:03;;;;;;;;;1.00;1.00;;;;;11.01;71.20;101283.97;5073428;28;45560;-73
2023/01/12 03:24:34;;;;;;;;;3.00;2.00;;;;;11.09;71.64;101289.28;5062104;27;45723;-74
2023/01/12 03:27:13;;;;;;;;;2.00;1.00;;;;;10.77;71.82;101220.84;5074838;28;45535;-73
2023/01/12 03:29:53;;;;;;;;;1.00;1.00;;;;;10.75;71.75;101222.59;5058882;28;45477;-74
2023/01/12 03:32:20;;;;;;;;;2.00;1.00;;;;;10.73;72.22;101233.06;5073388;28;45540;-73
2023/01/12 03:34:46;;;;;;;;;4.67;1.67;;;;;10.98;72.00;101281.31;5073025;27;46436;-72
2023/01/12 03:37:25;;;;;;;;;2.67;1.33;;;;;10.95;72.38;101267.31;5073421;27;45400;-74
2023/01/12 03:40:01;;;;;;;;;1.00;1.00;;;;;10.87;72.87;101262.00;5075109;28;45471;-74
2023/01/12 03:42:57;;;;;;;;;1.50;0.50;;;;;10.59;72.44;101216.31;5046357;28;45421;-73
2023/01/12 03:45:29;;;;;;;;;2.67;0.00;;;;;10.93;72.70;101272.53;5076296;27;47783;-73
2023/01/12 03:48:15;;;;;;;;;2.25;2.00;;;;;10.97;72.87;101244.63;5071104;27;45368;-74
2023/01/12 03:50:52;;;;;;;;;2.33;1.33;;;;;10.49;73.49;101180.44;5072309;28;45472;-73
2023/01/12 03:53:21;;;;;;;;;2.67;1.00;;;;;10.59;73.42;101201.47;5073095;27;45939;-72
2023/01/12 03:55:54;;;;;;;;;3.00;1.00;;;;;10.54;73.67;101192.72;5056420;28;46498;-73
2023/01/12 03:58:21;;;;;;;;;1.00;1.00;;;;;10.28;73.96;101154.88;5074364;28;45358;-72
2023/01/12 04:00:50;;;;;;;;;1.67;0.33;;;;;10.83;73.87;101249.72;5054968;28;45583;-73
2023/01/12 04:03:16;;;;;;;;;1.00;1.00;;;;;10.79;74.54;101235.72;5074015;28;45563;-73
2023/01/12 04:05:43;;;;;;;;;1.67;1.33;;;;;10.83;74.11;101236.63;5074104;27;45572;-74
2023/01/12 04:08:10;;;;;;;;;1.00;1.00;;;;;10.61;74.56;101198.88;5075210;28;45360;-73
2023/01/12 04:10:35;;;;;;;;;3.50;1.00;;;;;10.57;74.31;101171.78;5075992;28;45378;-74
2023/01/12 04:13:01;;;;;;;;;1.67;1.00;;;;;10.28;74.59;101150.56;5075446;27;45306;-73
2023/01/12 04:15:26;;;;;;;;;3.00;0.00;;;;;10.75;74.10;101217.34;5075655;28;45766;-76
2023/01/12 04:17:52;;;;;;;;;2.00;0.67;;;;;10.66;74.32;101181.47;5076201;28;45341;-74
2023/01/12 04:20:24;;;;;;;;;1.00;1.00;;;;;10.54;74.45;101163.91;5056915;28;45576;-76
2023/01/12 04:22:53;;;;;;;;;1.00;1.00;;;;;10.72;74.34;101193.72;5076786;28;45554;-77
2023/01/12 04:25:21;;;;;;;;;3.50;1.00;;;;;10.27;74.18;101103.38;5076945;27;45505;-77
2023/01/12 04:27:50;;;;;;;;;2.33;1.67;;;;;10.72;74.23;101170.16;5076123;28;45453;-77
2023/01/12 04:30:19;;;;;;;;;2.00;1.00;;;;;10.71;73.95;101164.03;5065503;28;45545;-77
2023/01/12 04:32:45;;;;;;;;;3.67;0.67;;;;;10.81;73.64;101170.22;5075011;28;45854;-74
2023/01/12 04:35:12;;;;;;;;;1.33;1.00;;;;;10.72;73.84;101170.16;5073937;28;46116;-74
2023/01/12 04:37:38;;;;;;;;;4.00;2.00;;;;;10.90;73.87;101177.28;5074008;27;45367;-76
2023/01/12 04:40:05;;;;;;;;;3.00;1.67;;;;;10.42;73.84;101087.84;5073681;27;45355;-73
2023/01/12 04:45:15;;;;;;;;;3.00;1.00;;;;;10.74;73.79;101155.31;5077005;28;45449;-78
2023/01/12 04:47:41;;;;;;;;;3.33;2.33;;;;;10.89;73.57;101186.91;5076851;28;45479;-73
2023/01/12 04:50:08;;;;;;;;;1.00;1.00;;;;;10.90;73.63;101187.78;5077558;28;45485;-75
2023/01/12 04:52:35;;;;;;;;;1.00;1.00;;;;;10.89;73.48;101194.78;5079998;28;45347;-73
2023/01/12 04:55:01;;;;;;;;;3.00;1.00;;;;;10.64;73.58;101151.75;5077786;28;45483;-74
2023/01/12 04:57:26;;;;;;;;;2.33;1.33;;;;;10.98;73.45;101191.31;5059295;28;45406;-79
2023/01/12 04:59:52;;;;;;;;;1.00;1.00;;;;;11.01;72.71;101184.38;5059026;28;45580;-76
2023/01/12 05:02:18;;;;;;;;;2.00;1.00;;;;;10.91;72.93;101171.16;5060900;28;45518;-74
2023/01/12 05:04:46;;;;;;;;;3.00;2.00;;;;;10.98;72.70;101165.97;5076949;28;45621;-75
2023/01/12 05:07:12;;;;;;;;;0.33;0.33;;;;;11.10;72.61;101164.31;5076372;28;45892;-74
2023/01/12 05:12:22;;;;;;;;;1.00;1.00;;;;;11.00;72.35;101143.28;5077062;28;45291;-73
2023/01/12 05:14:49;;;;;;;;;4.00;1.00;;;;;11.00;72.72;101158.13;5077584;28;45402;-75
2023/01/12 05:17:16;;;;;;;;;5.67;0.00;;;;;11.05;72.85;101156.41;5080602;28;45246;-79
2023/01/12 05:19:41;;;;;;;;;1.00;1.00;;;;;10.45;72.19;101035.50;5080863;27;45495;-79
2023/01/12 05:22:07;;;;;;;;;5.00;1.33;;;;;11.17;72.51;101176.59;5077917;28;45714;-78
2023/01/12 05:24:33;;;;;;;;;3.00;1.00;;;;;10.87;72.73;101107.41;5076838;27;45642;-78
2023/01/12 05:27:00;;;;;;;;;3.75;1.00;;;;;11.09;72.54;101147.72;5081809;27;45339;-79
2023/01/12 05:29:27;;;;;;;;;4.33;2.00;;;;;10.98;72.02;101129.28;5066763;28;45371;-76
2023/01/12 05:31:53;;;;;;;;;0.00;0.00;;;;;11.10;72.01;101138.97;5061269;28;45598;-75
2023/01/12 05:34:22;;;;;;;;;3.67;1.00;;;;;11.06;72.14;101120.59;5076838;28;45495;-79
2023/01/12 05:36:48;;;;;;;;;4.00;1.00;;;;;10.52;72.00;101060.00;5076365;27;45491;-78
2023/01/12 05:39:14;;;;;;;;;1.33;1.33;;;;;11.24;71.92;101145.19;5079196;28;45533;-75
2023/01/12 05:43:48;;;;;;;;;3.00;1.67;;;;;11.27;71.94;101146.97;5060174;28;45654;-75
2023/01/12 05:44:25;;;;;;;;;4.00;1.67;;;;;10.88;72.33;101084.69;5077954;27;45332;-73
2023/01/12 05:46:51;;;;;;;;;1.33;1.00;;;;;11.07;72.31;101133.72;5077274;27;45308;-78
2023/01/12 05:49:16;;;;;;;;;2.67;1.00;;;;;10.87;71.89;101083.81;5076975;28;45427;-72
2023/01/12 05:51:42;;;;;;;;;6.33;1.33;;;;;11.23;72.08;101156.53;5076371;28;45505;-73
2023/01/12 05:54:08;;;;;;;;;0.33;0.33;;;;;11.25;72.25;101144.31;5079434;28;46144;-72
2023/01/12 05:56:37;;;;;;;;;3.00;0.00;;;;;11.17;72.32;101147.75;5079807;27;45466;-74
2023/01/12 05:59:03;;;;;;;;;10.67;2.00;;;;;11.24;72.27;101166.16;5079589;27;45485;-74
2023/01/12 06:01:30;;;;;;;;;1.67;0.00;;;;;11.06;72.46;101136.31;5079840;28;45334;-75
2023/01/12 06:03:58;;;;;;;;;4.00;1.00;;;;;10.98;72.41;101121.41;5076211;28;45372;-74
2023/01/12 06:06:25;;;;;;;;;2.67;0.00;;;;;11.18;72.51;101147.78;5074782;28;45647;-73
2023/01/12 06:08:52;;;;;;;;;1.00;1.00;;;;;10.83;72.52;101084.66;5079127;28;45448;-73
2023/01/12 06:14:03;;;;;;;;;5.67;1.00;;;;;11.31;73.08;101159.22;5061294;28;45441;-74
2023/01/12 06:16:29;;;;;;;;;2.00;1.33;;;;;11.32;72.81;101158.34;5075016;28;45903;-73
2023/01/12 06:18:55;;;;;;;;;5.00;1.33;;;;;11.16;73.61;101125.03;5074792;27;45342;-74
2023/01/12 06:21:22;;;;;;;;;0.00;0.00;;;;;11.28;73.25;101148.72;5061334;28;45341;-73
2023/01/12 06:23:48;;;;;;;;;2.33;1.33;;;;;10.85;74.09;101080.31;5076496;28;46712;-76
2023/01/12 06:26:14;;;;;;;;;4.67;2.00;;;;;11.21;74.22;101147.78;5056564;28;46019;-72
2023/01/12 06:28:41;;;;;;;;;7.67;1.67;;;;;11.18;74.33;101168.75;5063957;28;45899;-74
2023/01/12 06:31:09;;;;;;;;;5.00;2.00;;;;;11.16;74.31;101149.50;5053109;28;46561;-76
2023/01/12 06:33:35;;;;;;;;;2.00;0.00;;;;;10.91;74.56;101117.00;5074320;27;45583;-74
2023/01/12 06:36:01;;;;;;;;;0.00;0.00;;;;;10.76;74.55;101091.59;5078573;28;45471;-74
2023/01/12 06:38:30;;;;;;;;;0.00;0.00;;;;;11.02;73.94;101135.44;5058676;28;45535;-73
2023/01/12 06:44:02;;;;;;;;;2.00;0.33;;;;;10.83;74.06;101118.72;5074116;27;45492;-74
2023/01/12 06:46:28;;;;;;;;;2.33;0.00;;;;;11.22;73.83;101180.13;5056412;28;46672;-74
2023/01/12 06:48:55;;;;;;;;;2.00;1.00;;;;;11.04;74.08;101158.16;5056085;28;45475;-74
2023/01/12 06:51:21;;;;;;;;;3.00;1.00;;;;;11.30;73.99;101202.03;5054048;28;45543;-74
2023/01/12 06:53:47;;;;;;;;;1.67;0.33;;;;;11.07;73.49;101146.81;5065978;28;45527;-74
2023/01/12 06:56:13;;;;;;;;;1.00;1.00;;;;;10.76;73.47;101099.44;5078438;27;45329;-75
2023/01/12 06:58:41;;;;;;;;;2.33;1.00;;;;;11.13;73.42;101149.50;5077860;28;45469;-72
2023/01/12 07:01:07;;;;;;;;;2.00;0.00;;;;;11.21;73.53;101162.66;5074412;28;45532;-74
2023/01/12 07:03:33;;;;;;;;;3.00;1.33;;;;;10.94;73.49;101116.16;5074321;28;45464;-74
2023/01/12 07:05:59;;;;;;;;;2.67;1.00;;;;;11.07;73.87;101143.34;5076864;28;45576;-73
2023/01/12 07:08:25;;;;;;;;;0.00;0.00;;;;;10.96;74.23;101110.06;5079313;27;45348;-73
2023/01/12 07:10:51;;;;;;;;;0.33;0.00;;;;;11.17;74.90;101156.50;5076220;27;45690;-74
2023/01/12 07:13:17;;;;;;;;;3.67;1.00;;;;;11.14;75.46;101137.25;5076344;28;46508;-76
2023/01/12 07:15:43;;;;;;;;;1.33;0.00;;;;;11.29;75.45;101168.81;5076054;27;45666;-75
2023/01/12 07:18:08;;;;;;;;;1.00;1.00;;;;;11.24;76.43;101175.78;5075842;28;45484;-75
2023/01/12 07:20:35;;;;;;;;;1.33;0.00;;;;;10.63;77.12;101066.19;5075695;28;45433;-75
2023/01/12 07:23:01;;;;;;;;;1.67;0.33;;;;;10.99;76.99;101117.09;5069075;27;46439;-76
2023/01/12 07:25:27;;;;;;;;;3.00;0.00;;;;;11.24;77.15;101146.94;5063568;28;45667;-76
2023/01/12 07:27:57;;;;;;;;;0.67;0.00;;;;;11.20;77.81;101168.75;5064299;27;45398;-79
2023/01/12 07:30:24;;;;;;;;;2.33;1.00;;;;;11.25;77.40;101172.31;5048146;28;45407;-75
2023/01/12 07:32:50;;;;;;;;;2.33;1.00;;;;;11.28;77.00;101163.56;5081287;27;45504;-76
2023/01/12 07:35:16;;;;;;;;;4.33;1.33;;;;;11.29;76.73;101165.31;5084221;28;45569;-74
2023/01/12 07:37:50;;;;;;;;;4.67;2.00;;;;;11.28;77.54;101169.69;5084868;28;45525;-75
2023/01/12 07:40:16;;;;;;;;;0.00;0.00;;;;;11.08;76.88;101147.69;5073143;27;45341;-77
2023/01/12 07:42:42;;;;;;;;;1.00;1.00;;;;;10.89;77.12;101110.91;5049164;28;45586;-75
2023/01/12 07:45:09;;;;;;;;;1.00;1.00;;;;;11.28;76.75;101163.56;5066723;28;45821;-75
2023/01/12 07:47:35;;;;;;;;;1.00;1.00;;;;;11.18;76.32;101146.91;5058511;28;45780;-74
2023/01/12 07:50:00;;;;;;;;;2.67;1.00;;;;;10.93;76.10;101115.28;5080128;27;45358;-77
2023/01/12 07:52:26;;;;;;;;;3.67;1.33;;;;;11.26;76.36;101171.41;5072914;28;45404;-77
2023/01/12 07:54:52;;;;;;;;;4.00;1.00;;;;;11.09;76.24;101131.13;5076137;27;45639;-75
2023/01/12 07:57:21;;;;;;;;;1.00;0.33;;;;;11.28;75.41;101163.56;5071091;28;45459;-78
2023/01/12 07:59:46;;;;;;;;;1.00;1.00;;;;;10.99;75.84;101127.56;5076803;28;45561;-73
2023/01/12 08:02:18;;;;;;;;;6.33;1.33;;;;;11.03;75.54;101126.69;5077886;27;45464;-73
2023/01/12 08:04:44;;;;;;;;;3.00;1.00;;;;;11.34;75.19;101172.34;5058028;28;45763;-75
2023/01/12 08:07:10;;;;;;;;;3.00;1.33;;;;;11.30;75.14;101152.22;5075581;27;45950;-76
2023/01/12 08:09:36;;;;;;;;;4.67;1.00;;;;;11.13;75.09;101135.50;5078346;27;45348;-74
2023/01/12 08:12:02;;;;;;;;;0.33;0.33;;;;;11.33;75.38;101173.22;5075048;27;45411;-73
2023/01/12 08:14:32;;;;;;;;;0.00;0.00;;;;;11.01;75.36;101112.72;5074676;27;45428;-74
2023/01/12 08:17:00;;;;;;;;;2.33;0.00;;;;;11.36;74.95;101172.34;5074464;27;45941;-74
2023/01/12 08:19:40;;;;;;;;;1.33;1.00;;;;;11.31;75.40;101166.19;5069966;28;45547;-74
2023/01/12 08:22:14;;;;;;;;;4.33;1.00;;;;;11.38;74.89;101158.38;5073792;27;46595;-74
2023/01/12 08:24:49;;;;;;;;;1.00;1.00;;;;;11.49;74.70;101162.81;5074430;27;45617;-74
2023/01/12 08:27:18;;;;;;;;;1.00;0.00;;;;;11.14;75.02;101096.19;5076156;27;45701;-72
2023/01/12 08:29:49;;;;;;;;;5.00;0.50;;;;;11.54;74.47;101167.22;5063909;27;45914;-75
2023/01/12 08:32:18;;;;;;;;;0.67;0.67;;;;;11.08;75.41;101103.13;5076737;27;45398;-74
2023/01/12 08:34:47;;;;;;;;;1.00;1.00;;;;;11.13;75.72;101107.56;5077344;28;45942;-76
2023/01/12 08:37:15;;;;;;;;;2.00;0.00;;;;;10.91;75.45;101069.84;5057695;28;45642;-76
2023/01/12 08:39:41;;;;;;;;;0.00;0.00;;;;;11.56;75.40;101175.09;5078547;28;45590;-76
2023/01/12 08:42:07;;;;;;;;;0.33;0.33;;;;;11.43;75.39;101146.16;5080246;27;46289;-76
2023/01/12 08:44:34;;;;;;;;;1.00;0.00;;;;;11.18;75.40;101107.59;5080841;28;45520;-75
2023/01/12 08:47:01;;;;;;;;;2.33;0.33;;;;;11.33;75.80;101140.88;5069788;28;45735;-76
2023/01/12 08:49:28;;;;;;;;;0.33;0.00;;;;;11.24;75.64;101134.69;5077076;27;45492;-73
2023/01/12 08:51:54;;;;;;;;;3.33;0.00;;;;;11.55;75.98;101171.56;5076613;28;45760;-74
2023/01/12 08:54:24;;;;;;;;;6.33;3.00;;;;;11.26;75.67;101126.84;5063214;28;45501;-75
2023/01/12 08:56:50;;;;;;;;;3.00;1.00;;;;;11.26;76.31;101142.56;5077363;28;45924;-73
2023/01/12 08:59:17;;;;;;;;;2.00;1.00;;;;;10.80;76.40;101061.06;5069325;27;45449;-74
2023/01/12 09:01:43;;;;;;;;;0.67;0.00;;;;;11.61;76.68;101178.63;5076015;28;45283;-77
2023/01/12 09:04:09;;;;;;;;;0.67;0.67;;;;;11.53;77.30;101160.22;5075907;27;45697;-68
2023/01/12 09:06:38;;;;;;;;;2.00;1.00;;;;;11.70;77.18;101177.75;5065618;27;45782;-71
2023/01/12 09:09:08;;;;;;;;;1.00;1.00;;;;;11.71;77.30;101176.91;5076139;27;45563;-71
2023/01/12 09:11:39;;;;;;;;;1.67;0.33;;;;;11.74;77.35;101172.53;5075273;27;46018;-72
2023/01/12 09:14:08;;;;;;;;;0.67;0.00;;;;;11.65;76.80;101159.38;5076366;27;45437;-74
2023/01/12 09:16:34;;;;;;;;;5.33;0.33;;;;;11.74;77.09;101190.03;5087179;27;45556;-77
2023/01/12 09:19:00;;;;;;;;;4.00;1.00;;;;;11.70;77.30;101188.25;5066618;28;45389;-81
2023/01/12 09:21:28;;;;;;;;;4.00;0.67;;;;;11.20;78.15;101111.06;5085165;28;45410;-80
2023/01/12 09:23:53;;;;;;;;;1.00;0.00;;;;;11.20;77.95;101106.72;5084890;27;45459;-83
2023/01/12 09:26:22;;;;;;;;;0.00;0.00;;;;;11.55;78.25;101174.19;5076997;28;45339;-81
2023/01/12 09:28:50;;;;;;;;;0.00;0.00;;;;;11.03;78.70;101082.13;5076416;28;45421;-74
2023/01/12 09:31:18;;;;;;;;;2.00;1.00;;;;;11.44;78.94;101163.66;5101759;27;47215;-77
2023/01/12 09:33:45;;;;;;;;;1.00;1.00;;;;;11.60;79.21;101192.59;5087148;28;45514;-78
2023/01/12 09:36:15;;;;;;;;;1.67;1.00;;;;;11.22;79.37;101136.44;5063230;28;45480;-77
2023/01/12 09:38:43;;;;;;;;;3.00;0.00;;;;;11.42;79.00;101162.78;5076117;27;45328;-76
2023/01/12 09:47:03;;;;;;;;;2.00;2.00;;;;;11.51;79.72;101195.16;5074895;27;45438;-72
2023/01/12 09:50:04;;;;;;;;;5.00;2.00;;;;;11.49;80.28;101186.44;5076443;28;45845;-78
2023/01/12 09:52:52;;;;;;;;;2.00;1.00;;;;;11.56;79.24;101201.31;5047158;27;47865;-79
2023/01/12 09:55:22;;;;;;;;;1.00;1.00;;;;;11.50;79.60;101196.03;5074992;28;45444;-76
2023/01/12 09:58:23;;;;;;;;;1.00;1.00;;;;;10.93;79.99;101103.94;5056922;28;46192;-75
2023/01/12 10:00:56;;;;;;;;;1.00;1.00;;;;;11.20;79.74;101159.16;5046606;28;45350;-77
2023/01/12 10:03:28;;;;;;;;;0.00;0.00;;;;;11.50;79.86;101201.28;5076253;28;46849;-78
2023/01/12 10:05:58;;;;;;;;;1.67;1.33;;;;;10.98;79.92;101103.06;5057155;27;45486;-78
2023/01/12 10:08:54;;;;;;;;;0.67;0.67;;;;;11.53;80.13;101189.06;5079620;28;45443;-78
2023/01/12 10:11:39;;;;;;;;;0.33;0.00;;;;;11.62;80.11;101194.34;5058371;28;45445;-81
2023/01/12 10:14:18;;;;;;;;;3.67;0.33;;;;;11.59;79.77;101196.97;5067821;27;46422;-80
2023/01/12 10:17:26;;;;;;;;;0.33;0.33;;;;;11.39;80.04;101173.25;5076520;27;45735;-79
2023/01/12 10:20:02;;;;;;;;;2.00;1.00;;;;;11.61;79.04;101204.84;5060243;28;45838;-76
2023/01/12 10:22:37;;;;;;;;;2.33;1.33;;;;;11.61;79.04;101194.34;5090040;27;45554;-78
2023/01/12 10:25:18;;;;;;;;;2.33;2.00;;;;;11.66;78.91;101192.63;5074230;28;45626;-77
2023/01/12 10:27:48;;;;;;;;;1.33;1.00;;;;;11.37;78.98;101171.50;5063195;28;46040;-78
2023/01/12 10:30:19;;;;;;;;;1.00;1.00;;;;;11.38;79.71;101174.09;5072900;28;45643;-80
2023/01/12 10:32:45;;;;;;;;;3.33;1.00;;;;;11.51;80.02;101187.28;5074988;28;45482;-78
2023/01/12 10:35:17;;;;;;;;;4.00;1.00;;;;;11.63;80.47;101200.50;5073167;27;46240;-76
2023/01/12 10:37:54;;;;;;;;;3.33;1.00;;;;;11.58;80.53;101205.72;5076166;28;45520;-80
2023/01/12 10:40:25;;;;;;;;;5.67;1.00;;;;;10.99;80.86;101093.50;5056362;28;45580;-78
2023/01/12 10:45:42;;;;;;;;;2.00;2.00;;;;;11.16;81.40;101143.41;5066945;27;45750;-77
2023/01/12 10:48:22;;;;;;;;;2.67;2.00;;;;;11.48;81.04;101180.28;5060517;28;45380;-78
2023/01/12 10:51:04;;;;;;;;;6.67;2.00;;;;;11.56;81.17;101198.72;5071534;28;46261;-78
2023/01/12 10:53:44;;;;;;;;;1.00;1.00;;;;;11.57;80.99;101187.31;5075167;28;45935;-80
2023/01/12 10:56:29;;;;;;;;;4.00;0.33;;;;;11.31;80.87;101137.34;5075166;28;46536;-79
2023/01/12 10:59:20;;;;;;;;;4.67;2.33;;;;;11.37;81.32;101138.28;5074623;28;45556;-81
2023/01/12 11:02:02;;;;;;;;;4.67;2.00;;;;;11.66;81.85;101175.13;5060967;28;45523;-75
2023/01/12 11:04:28;;;;;;;;;5.33;1.67;;;;;11.52;80.73;101141.84;5070911;27;45739;-75
2023/01/12 11:07:09;;;;;;;;;1.00;1.00;;;;;11.79;82.20;101162.97;5058872;28;46950;-75
2023/01/12 11:09:36;;;;;;;;;1.67;1.33;;;;;11.79;80.99;101144.59;5073811;28;45352;-75
2023/01/12 11:12:05;;;;;;;;;6.00;1.00;;;;;11.87;79.93;101134.13;5056142;28;45381;-75
2023/01/12 11:14:37;;;;;;;;;5.33;2.33;;;;;12.01;80.48;101153.44;5071276;28;46375;-76
2023/01/12 11:17:23;;;;;;;;;1.00;1.00;;;;;12.15;79.59;101153.47;5074713;28;45663;-75
2023/01/12 11:19:50;;;;;;;;;4.67;1.33;;;;;12.34;78.22;101141.25;5052434;28;45710;-72
2023/01/12 11:22:26;;;;;;;;;3.67;1.00;;;;;12.46;77.28;101138.63;5073650;28;45331;-72
2023/01/12 11:25:05;;;;;;;;;4.00;2.00;;;;;12.38;78.54;101132.47;5063402;28;45835;-73
2023/01/12 11:27:39;;;;;;;;;1.33;1.00;;;;;12.42;76.95;101136.84;5072464;28;45990;-72
2023/01/12 11:30:24;;;;;;;;;2.00;1.67;;;;;12.54;77.42;101124.63;5087885;27;46352;-72
2023/01/12 11:33:09;;;;;;;;;2.67;1.00;;;;;12.65;77.60;101123.75;5075717;28;45665;-72
2023/01/12 11:35:50;;;;;;;;;2.67;2.00;;;;;12.69;75.89;101106.19;5071223;28;45665;-70
2023/01/12 11:38:22;;;;;;;;;5.00;2.00;;;;;12.57;75.59;101086.06;5073498;27;46130;-72
2023/01/12 11:40:49;;;;;;;;;4.00;1.67;;;;;12.72;75.49;101091.31;5076155;28;45726;-72
2023/01/12 11:43:48;;;;;;;;;5.00;2.67;;;;;12.94;75.54;101135.97;5077282;28;45252;-75
2023/01/12 11:46:29;;;;;;;;;3.67;1.00;;;;;12.87;75.39;101140.34;5078383;28;45497;-75
2023/01/12 11:48:54;;;;;;;;;1.00;1.00;;;;;12.81;75.49;101131.59;5077482;27;45570;-74
2023/01/12 11:51:20;;;;;;;;;2.00;1.00;;;;;12.63;76.23;101108.84;5075078;28;45341;-76
2023/01/12 11:53:46;;;;;;;;;8.33;2.67;;;;;12.50;75.59;101079.97;5074080;28;45468;-73
2023/01/12 11:56:45;;;;;;;;;1.00;1.00;;;;;12.63;75.56;101127.25;5077661;27;45453;-79
2023/01/12 11:59:28;;;;;;;;;2.00;2.00;;;;;12.62;75.66;101128.09;5064195;27;45516;-79
2023/01/12 12:02:25;;;;;;;;;1.67;1.67;;;;;12.51;75.98;101112.34;5080600;27;45542;-83
2023/01/12 12:05:37;;;;;;;;;2.00;1.00;;;;;12.51;76.02;101112.34;5082501;27;45456;-80
2023/01/12 12:08:12;;;;;;;;;3.33;0.67;;;;;11.91;75.38;101032.63;5078612;28;45363;-79
2023/01/12 12:10:55;;;;;;;;;3.33;2.67;;;;;12.23;76.31;101093.06;5045783;28;46155;-78
2023/01/12 12:13:34;;;;;;;;;3.33;2.00;;;;;12.34;76.25;101101.84;5076309;27;45805;-78
2023/01/12 12:16:13;;;;;;;;;1.00;1.00;;;;;11.96;76.89;101033.50;5078847;27;45334;-78
2023/01/12 12:19:00;;;;;;;;;1.00;1.00;;;;;12.02;76.80;101026.53;5080425;28;45471;-80